Time;durP1;ratioP1;P1;durP2;ratioP2;P2;SDS_P1;SDS_P2;PMS_P1;PMS_P2;Temp;Humidity;BMP_temperature;BMP_pressure;BME280_temperature;BME280_humidity;BME280_pressure;Samples;Min_cycle;Max_cycle;Signal;HPM_P1;HPM_P2
2024/04/20 00:00:40;;;;;;;4.47;1.00;;;;;;;9.66;58.20;101501.56;5305481;26;112786;-66
2024/04/20 00:03:10;;;;;;;3.53;0.95;;;;;;;9.67;58.39;101513.00;5308038;26;122095;-66
2024/04/20 00:05:38;;;;;;;3.58;1.38;;;;;;;9.67;58.21;101518.28;5303435;26;121551;-67
2024/04/20 00:08:05;;;;;;;3.53;0.88;;;;;;;9.67;58.22;101507.72;5301251;26;112672;-67
2024/04/20 00:10:34;;;;;;;1.80;0.90;;;;;;;9.68;58.48;101514.72;5302566;26;112131;-67
2024/04/20 00:13:02;;;;;;;2.85;1.08;;;;;;;9.70;58.28;101518.16;5275923;26;122062;-67
2024/04/20 00:15:29;;;;;;;3.15;0.88;;;;;;;9.70;58.20;101528.75;5303980;26;122572;-67
2024/04/20 00:17:57;;;;;;;1.75;0.88;;;;;;;9.68;58.33;101530.59;5307823;26;112730;-67
2024/04/20 00:20:29;;;;;;;3.75;0.95;;;;;;;9.67;58.42;101528.88;5300630;26;112462;-67
2024/04/20 00:22:56;;;;;;;1.50;0.85;;;;;;;9.66;58.44;101532.41;5304823;26;122447;-67
2024/04/20 00:25:24;;;;;;;2.38;0.77;;;;;;;9.66;58.35;101537.69;5298405;26;122200;-67
2024/04/20 00:27:51;;;;;;;3.15;0.85;;;;;;;9.64;58.48;101526.31;5303321;26;112618;-67
2024/04/20 00:30:19;;;;;;;3.42;0.85;;;;;;;9.63;58.38;101532.53;5307049;26;112347;-67
2024/04/20 00:32:47;;;;;;;2.97;0.88;;;;;;;9.64;58.72;101528.94;5301030;26;122137;-69
2024/04/20 00:35:17;;;;;;;3.85;1.00;;;;;;;9.67;58.39;101539.44;5307664;26;122154;-67
2024/04/20 00:37:46;;;;;;;2.35;1.00;;;;;;;9.66;58.66;101545.63;5284798;26;113847;-67
2024/04/20 00:40:14;;;;;;;4.65;1.25;;;;;;;9.66;58.55;101548.28;5310535;26;113695;-67
2024/04/20 00:42:43;;;;;;;5.22;0.90;;;;;;;9.67;58.54;101544.72;5304960;26;122475;-68
2024/04/20 00:45:10;;;;;;;5.18;0.90;;;;;;;9.66;58.73;101543.00;5308316;26;122241;-67
2024/04/20 00:47:38;;;;;;;3.28;1.00;;;;;;;9.65;58.83;101541.28;5311015;26;113831;-68
2024/04/20 00:50:07;;;;;;;4.03;0.82;;;;;;;9.64;58.71;101540.38;5311413;26;113306;-68
2024/04/20 00:52:36;;;;;;;3.47;0.98;;;;;;;9.65;58.89;101546.56;5305333;26;122383;-67
2024/04/20 00:55:04;;;;;;;6.30;0.90;;;;;;;9.65;58.97;101546.56;5315396;26;122126;-67
2024/04/20 00:57:33;;;;;;;3.00;0.85;;;;;;;9.65;58.95;101546.56;5302626;26;113066;-68
2024/04/20 01:00:01;;;;;;;5.82;1.17;;;;;;;9.66;58.86;101556.22;5308948;26;113755;-67
2024/04/20 01:02:29;;;;;;;7.05;1.27;;;;;;;9.67;59.02;101560.59;5310347;26;122279;-67
2024/04/20 01:04:57;;;;;;;7.53;0.93;;;;;;;9.68;59.07;101557.03;5303214;26;122356;-67
2024/04/20 01:07:24;;;;;;;4.32;1.45;;;;;;;9.69;59.03;101558.78;5310260;26;114563;-67
2024/04/20 01:09:52;;;;;;;7.35;1.27;;;;;;;9.69;59.00;101569.34;5311743;26;113398;-67
2024/04/20 01:12:19;;;;;;;2.83;1.10;;;;;;;9.69;59.29;101564.06;5309073;26;122071;-67
2024/04/20 01:14:46;;;;;;;3.25;1.05;;;;;;;9.71;58.94;101570.19;5307616;26;122017;-67
2024/04/20 01:17:14;;;;;;;4.15;1.25;;;;;;;9.71;59.09;101562.25;5304352;26;112743;-67
2024/04/20 01:19:41;;;;;;;3.55;1.30;;;;;;;9.70;59.08;101565.78;5305161;26;112694;-67
2024/04/20 01:22:11;;;;;;;5.50;1.35;;;;;;;9.70;58.95;101565.78;5300373;26;123119;-67
2024/04/20 01:24:39;;;;;;;4.75;1.30;;;;;;;9.70;59.04;101576.38;5308029;26;122090;-67
2024/04/20 01:27:06;;;;;;;5.05;1.20;;;;;;;9.69;59.02;101572.00;5310410;26;113488;-67
2024/04/20 01:29:33;;;;;;;2.33;1.00;;;;;;;9.69;59.02;101572.00;5305982;26;112264;-66
2024/04/20 01:32:01;;;;;;;2.72;1.10;;;;;;;9.67;58.91;101571.19;5304741;26;122250;-72
2024/04/20 01:34:28;;;;;;;2.63;0.93;;;;;;;9.66;58.94;101580.03;5307146;26;122164;-66
2024/04/20 01:36:56;;;;;;;3.17;1.10;;;;;;;9.64;58.82;101588.00;5314854;26;112754;-68
2024/04/20 01:39:24;;;;;;;2.50;1.00;;;;;;;9.62;58.95;101583.66;5287966;26;111326;-67
2024/04/20 01:41:51;;;;;;;2.72;0.82;;;;;;;9.60;58.67;101585.50;5315203;26;122293;-66
2024/04/20 01:44:18;;;;;;;3.50;0.88;;;;;;;9.57;58.85;101585.56;5296386;26;122226;-66
2024/04/20 01:46:45;;;;;;;4.60;1.02;;;;;;;9.54;58.75;101587.41;5313226;26;116071;-67
2024/04/20 01:49:14;;;;;;;2.45;0.90;;;;;;;9.51;58.88;101587.50;5317539;26;112440;-67
2024/04/20 01:51:41;;;;;;;2.42;0.82;;;;;;;9.49;58.69;101589.34;5311650;26;122959;-67
2024/04/20 01:54:09;;;;;;;1.80;0.80;;;;;;;9.48;58.77;101603.44;5304321;26;121719;-67
2024/04/20 01:56:37;;;;;;;2.67;0.80;;;;;;;9.46;58.71;101594.69;5302309;26;113005;-68
2024/04/20 01:59:04;;;;;;;1.95;0.60;;;;;;;9.44;58.74;101612.38;5303424;26;112758;-68
2024/04/20 02:01:35;;;;;;;1.73;0.63;;;;;;;9.43;58.61;101615.91;5280713;26;122103;-67
2024/04/20 02:04:02;;;;;;;1.63;0.60;;;;;;;9.39;58.75;101614.28;5309476;26;123368;-67
2024/04/20 02:06:30;;;;;;;1.23;0.73;;;;;;;9.37;58.70;101618.75;5280604;26;111459;-68
2024/04/20 02:08:58;;;;;;;1.40;0.57;;;;;;;9.37;58.83;101616.09;5304567;26;113273;-68
2024/04/20 02:11:26;;;;;;;2.55;0.70;;;;;;;9.35;58.96;101625.84;5308211;26;121725;-68
2024/04/20 02:13:53;;;;;;;4.10;0.85;;;;;;;9.34;58.98;101622.34;5308138;26;122173;-68
2024/04/20 02:16:20;;;;;;;1.33;0.60;;;;;;;9.34;59.02;101621.47;5304459;26;114020;-68
2024/04/20 02:18:48;;;;;;;3.25;0.70;;;;;;;9.34;58.94;101626.75;5314460;26;113442;-68
2024/04/20 02:21:18;;;;;;;1.10;0.50;;;;;;;9.33;59.04;101635.59;5309324;26;122318;-68
2024/04/20 02:23:45;;;;;;;1.85;0.60;;;;;;;9.32;58.78;101628.56;5312546;26;122404;-68
2024/04/20 02:26:13;;;;;;;0.80;0.50;;;;;;;9.30;58.95;101635.69;5312410;26;112606;-67
2024/04/20 02:28:40;;;;;;;2.30;0.52;;;;;;;9.28;58.96;101637.50;5310513;26;113039;-67
2024/04/20 02:31:08;;;;;;;1.42;0.60;;;;;;;9.26;58.80;101639.31;5309409;26;122684;-67
2024/04/20 02:33:36;;;;;;;1.15;0.50;;;;;;;9.24;59.05;101646.41;5305522;26;122281;-68
2024/04/20 02:36:03;;;;;;;1.33;0.60;;;;;;;9.23;59.11;101640.28;5315739;26;112449;-67
2024/04/20 02:38:30;;;;;;;2.58;0.80;;;;;;;9.23;58.89;101655.25;5311588;26;111613;-67
2024/04/20 02:40:59;;;;;;;2.13;0.70;;;;;;;9.21;59.03;101652.66;5313746;26;122168;-67
2024/04/20 02:43:26;;;;;;;2.80;0.90;;;;;;;9.20;59.10;101660.63;5271612;26;121011;-67
2024/04/20 02:45:53;;;;;;;3.85;0.75;;;;;;;9.20;59.09;101660.63;5301616;26;112214;-67
2024/04/20 02:48:21;;;;;;;1.88;0.55;;;;;;;9.20;59.01;101658.00;5305232;26;112500;-67
2024/04/20 02:50:49;;;;;;;1.98;0.70;;;;;;;9.19;59.12;101666.81;5304799;26;122075;-67
2024/04/20 02:53:16;;;;;;;6.47;0.82;;;;;;;9.18;59.12;101673.03;5260235;26;120783;-67
2024/04/20 02:55:44;;;;;;;7.30;1.00;;;;;;;9.19;59.19;101669.44;5303491;26;111639;-67
2024/04/20 02:58:11;;;;;;;2.38;0.88;;;;;;;9.18;59.04;101678.31;5304351;26;112612;-67
2024/04/20 03:00:39;;;;;;;4.75;1.15;;;;;;;9.17;59.23;101693.28;5311749;26;122150;-66
2024/04/20 03:03:06;;;;;;;5.53;1.20;;;;;;;9.16;58.93;101684.47;5303840;26;122988;-67
2024/04/20 03:05:34;;;;;;;3.67;1.00;;;;;;;9.16;59.23;101687.13;5304039;26;113578;-67
2024/04/20 03:08:01;;;;;;;3.83;0.85;;;;;;;9.16;59.06;101696.84;5309455;26;113841;-67
2024/04/20 03:10:28;;;;;;;2.33;0.70;;;;;;;9.15;59.07;101689.81;5308102;26;122418;-67
2024/04/20 03:12:56;;;;;;;6.72;1.00;;;;;;;9.13;59.07;101697.75;5318439;26;122465;-67
2024/04/20 03:15:24;;;;;;;3.38;0.98;;;;;;;9.12;58.94;101696.03;5288419;26;113986;-67
2024/04/20 03:17:51;;;;;;;4.20;1.10;;;;;;;9.13;59.02;101695.13;5311075;26;111766;-68
2024/04/20 03:20:19;;;;;;;4.53;1.10;;;;;;;9.13;59.00;101687.19;5309331;26;122718;-67
2024/04/20 03:22:46;;;;;;;4.22;0.90;;;;;;;9.13;59.13;101687.19;5306147;26;122363;-67
2024/04/20 03:25:15;;;;;;;4.60;0.93;;;;;;;9.13;59.06;101687.19;5303710;26;112976;-67
2024/04/20 03:27:43;;;;;;;5.22;0.90;;;;;;;9.15;58.93;101684.50;5312777;26;113420;-67
2024/04/20 03:30:10;;;;;;;6.07;1.00;;;;;;;9.14;59.05;101699.50;5307829;26;122397;-67
2024/04/20 03:32:38;;;;;;;3.53;0.98;;;;;;;9.15;59.16;101701.25;5313617;26;121999;-67
2024/04/20 03:35:06;;;;;;;4.40;1.00;;;;;;;9.15;59.14;101695.97;5304310;26;112749;-67
2024/04/20 03:37:33;;;;;;;5.13;0.98;;;;;;;9.16;59.27;101708.28;5313398;26;112460;-67
2024/04/20 03:40:00;;;;;;;4.13;1.02;;;;;;;9.15;59.20;101717.13;5313484;26;121897;-67
2024/04/20 03:42:29;;;;;;;5.55;0.88;;;;;;;9.15;59.19;101726.81;5316098;26;123233;-67
2024/04/20 03:44:56;;;;;;;4.53;1.05;;;;;;;9.14;59.30;101720.66;5310444;26;113043;-66
2024/04/20 03:47:23;;;;;;;3.92;0.90;;;;;;;9.14;59.34;101738.28;5307511;26;113274;-66
2024/04/20 03:49:51;;;;;;;2.60;0.90;;;;;;;9.14;59.24;101736.50;5304869;26;122188;-67
2024/04/20 03:52:18;;;;;;;4.88;0.93;;;;;;;9.15;59.23;101743.56;5310581;26;122018;-69
2024/04/20 03:54:46;;;;;;;4.90;1.40;;;;;;;9.15;59.38;101742.66;5305550;26;113884;-66
2024/04/20 03:57:13;;;;;;;5.88;1.00;;;;;;;9.14;59.44;101752.38;5276475;26;112891;-65
2024/04/20 03:59:41;;;;;;;4.22;1.00;;;;;;;9.14;59.20;101752.38;5304922;26;122444;-65
2024/04/20 04:02:08;;;;;;;6.03;1.00;;;;;;;9.12;59.38;101748.91;5306518;26;123788;-65
2024/04/20 04:04:36;;;;;;;2.63;1.10;;;;;;;9.09;59.32;101748.97;5308565;26;112550;-66
2024/04/20 04:07:04;;;;;;;2.17;0.52;;;;;;;9.08;59.38;101739.31;5308904;26;112538;-66
2024/04/20 04:09:31;;;;;;;4.03;0.90;;;;;;;9.10;59.37;101753.34;5312882;26;122869;-66
2024/04/20 04:11:58;;;;;;;3.00;0.70;;;;;;;9.10;59.49;101748.06;5317560;26;122389;-66
2024/04/20 04:14:26;;;;;;;4.07;0.98;;;;;;;9.09;59.25;101748.97;5308044;26;112354;-66
2024/04/20 04:16:56;;;;;;;5.15;1.15;;;;;;;9.09;59.32;101748.97;5313382;26;112319;-67
2024/04/20 04:19:23;;;;;;;4.95;0.73;;;;;;;9.08;59.27;101757.81;5313430;26;122718;-67
2024/04/20 04:21:51;;;;;;;5.68;1.00;;;;;;;9.08;59.36;101763.09;5314091;26;121977;-66
2024/04/20 04:24:19;;;;;;;7.18;0.90;;;;;;;9.09;59.16;101759.53;5278292;26;111569;-66
2024/04/20 04:26:46;;;;;;;3.10;0.82;;;;;;;9.10;59.27;101769.22;5311180;26;112625;-67
2024/04/20 04:29:13;;;;;;;2.60;0.82;;;;;;;9.09;59.12;101775.38;5311762;26;121989;-66
2024/04/20 04:31:41;;;;;;;1.65;0.50;;;;;;;9.09;59.10;101775.38;5306435;26;122217;-67
2024/04/20 04:34:08;;;;;;;3.58;0.77;;;;;;;9.10;59.17;101782.44;5306059;26;113150;-67
2024/04/20 04:36:36;;;;;;;1.88;0.70;;;;;;;9.11;59.19;101789.44;5311555;26;111259;-66
2024/04/20 04:39:07;;;;;;;2.13;0.55;;;;;;;9.10;59.03;101793.00;5309278;26;122393;-66
2024/04/20 04:41:35;;;;;;;3.15;0.85;;;;;;;9.09;59.06;101796.53;5313968;26;122122;-67
2024/04/20 04:44:02;;;;;;;3.10;0.65;;;;;;;9.09;59.19;101800.97;5327646;26;113901;-67
2024/04/20 04:46:30;;;;;;;3.10;0.63;;;;;;;9.06;59.06;101807.19;5316346;26;112983;-66
2024/04/20 04:48:57;;;;;;;4.28;0.70;;;;;;;9.05;58.98;101800.16;5309314;26;122476;-66
2024/04/20 04:51:25;;;;;;;1.52;0.60;;;;;;;9.04;59.00;101794.91;5315061;26;122943;-66
2024/04/20 04:53:52;;;;;;;3.33;0.70;;;;;;;9.02;58.80;101805.50;5306592;26;112495;-67
2024/04/20 04:56:20;;;;;;;1.17;0.50;;;;;;;9.02;58.93;101815.22;5304805;26;112649;-66
2024/04/20 04:58:48;;;;;;;3.20;0.77;;;;;;;8.99;59.06;101816.16;5311742;26;121240;-66
2024/04/20 05:01:15;;;;;;;3.42;0.65;;;;;;;9.00;59.02;101809.94;5306770;26;122989;-66
2024/04/20 05:03:42;;;;;;;2.47;0.50;;;;;;;8.99;59.00;101816.16;5303765;26;114371;-67
2024/04/20 05:06:10;;;;;;;2.08;0.70;;;;;;;8.99;58.95;101810.88;5302758;26;112652;-67
2024/04/20 05:08:37;;;;;;;2.28;0.60;;;;;;;9.00;59.11;101812.59;5284236;26;122343;-67
2024/04/20 05:11:05;;;;;;;1.70;0.60;;;;;;;9.02;58.94;101816.06;5313629;26;122228;-67
2024/04/20 05:13:32;;;;;;;3.00;0.82;;;;;;;9.02;59.13;101826.63;5312305;26;112560;-67
2024/04/20 05:16:00;;;;;;;2.67;0.70;;;;;;;9.03;59.22;101823.09;5308794;26;112740;-68
2024/04/20 05:18:29;;;;;;;2.20;0.70;;;;;;;9.05;59.07;101831.88;5303794;26;122547;-67
2024/04/20 05:20:56;;;;;;;3.40;0.70;;;;;;;9.09;59.36;101832.66;5304662;26;122900;-67
2024/04/20 05:23:24;;;;;;;3.58;0.90;;;;;;;9.11;58.92;101831.72;5306504;26;113063;-68
2024/04/20 05:25:51;;;;;;;3.28;0.80;;;;;;;9.14;59.14;101836.94;5310798;26;112753;-67
2024/04/20 05:28:19;;;;;;;2.45;0.50;;;;;;;9.18;59.08;101844.81;5281814;26;118821;-67
2024/04/20 05:30:46;;;;;;;2.13;0.80;;;;;;;9.19;59.18;101843.88;5311404;26;122655;-67
2024/04/20 05:33:14;;;;;;;2.47;0.80;;;;;;;9.22;59.22;101859.69;5308136;26;113662;-67
2024/04/20 05:35:41;;;;;;;2.85;0.75;;;;;;;9.23;59.18;101850.84;5306961;26;114244;-66
2024/04/20 05:38:09;;;;;;;2.20;0.75;;;;;;;9.26;59.26;101856.06;5308238;26;122171;-67
2024/04/20 05:40:37;;;;;;;1.55;0.80;;;;;;;9.28;59.24;101854.25;5306089;26;122515;-67
2024/04/20 05:43:04;;;;;;;5.25;1.00;;;;;;;9.31;59.22;101859.47;5311140;26;110810;-67
2024/04/20 05:45:35;;;;;;;2.03;0.77;;;;;;;9.34;59.37;101864.69;5312468;26;112514;-67
2024/04/20 05:48:03;;;;;;;1.50;0.60;;;;;;;9.37;59.29;101867.25;5313893;26;123250;-67
2024/04/20 05:50:31;;;;;;;2.05;0.88;;;;;;;9.40;59.36;101863.66;5311275;26;122936;-67
2024/04/20 05:52:58;;;;;;;1.92;0.70;;;;;;;9.43;59.30;101875.03;5314581;26;112367;-68
2024/04/20 05:55:30;;;;;;;4.25;0.65;;;;;;;9.47;59.40;101876.69;5304369;26;112799;-68
2024/04/20 05:57:59;;;;;;;2.92;0.60;;;;;;;9.51;59.41;101867.81;5314805;26;123649;-67
2024/04/20 06:00:26;;;;;;;2.53;0.80;;;;;;;9.54;59.49;101877.44;5295369;26;122160;-67
2024/04/20 06:02:54;;;;;;;5.05;0.80;;;;;;;9.58;59.30;101878.22;5282583;26;112267;-68
2024/04/20 06:05:21;;;;;;;2.78;0.65;;;;;;;9.60;59.25;101887.00;5312683;26;112763;-68
2024/04/20 06:07:49;;;;;;;2.65;0.90;;;;;;;9.61;59.17;101884.31;5313162;26;122041;-67
2024/04/20 06:10:16;;;;;;;2.72;0.70;;;;;;;9.65;59.33;101887.75;5324287;26;122357;-67
2024/04/20 06:12:44;;;;;;;2.78;0.70;;;;;;;9.66;59.20;101887.72;5308213;26;112619;-67
2024/04/20 06:15:11;;;;;;;3.97;0.82;;;;;;;9.69;59.18;101897.34;5311783;26;112612;-67
2024/04/20 06:17:38;;;;;;;1.80;0.70;;;;;;;9.71;59.22;101895.53;5305242;26;122099;-67
2024/04/20 06:20:06;;;;;;;1.50;0.52;;;;;;;9.74;59.14;101900.78;5304370;26;122258;-67
2024/04/20 06:22:34;;;;;;;2.22;0.82;;;;;;;9.75;59.14;101902.50;5311028;26;113563;-66
2024/04/20 06:25:04;;;;;;;1.23;0.70;;;;;;;9.77;59.20;101911.25;5305543;26;113917;-67
2024/04/20 06:27:34;;;;;;;4.60;0.75;;;;;;;9.80;59.30;101915.63;5305594;26;122383;-67
2024/04/20 06:30:02;;;;;;;2.95;0.70;;;;;;;9.83;59.12;101926.09;5318354;26;122671;-67
2024/04/20 06:32:31;;;;;;;1.50;0.60;;;;;;;9.83;59.01;101937.59;5302647;26;112781;-67
2024/04/20 06:34:58;;;;;;;4.20;1.35;;;;;;;9.85;59.12;101930.47;5306213;26;112486;-67
2024/04/20 06:37:26;;;;;;;5.40;0.65;;;;;;;9.86;59.03;101929.56;5304627;26;122335;-67
2024/04/20 06:39:53;;;;;;;2.00;0.75;;;;;;;9.89;59.07;101945.38;5315289;26;122583;-67
2024/04/20 06:42:20;;;;;;;3.53;0.82;;;;;;;9.90;59.01;101928.56;5311335;26;112758;-68
2024/04/20 06:44:50;;;;;;;5.07;0.88;;;;;;;9.90;59.05;101941.78;5303484;26;111928;-67
2024/04/20 06:47:17;;;;;;;2.13;0.60;;;;;;;9.92;59.05;101942.63;5319479;26;122459;-68
2024/04/20 06:49:45;;;;;;;0.85;0.40;;;;;;;9.96;59.16;101942.56;5318723;26;121156;-67
2024/04/20 06:52:13;;;;;;;3.20;0.50;;;;;;;9.98;59.07;101946.03;5322245;26;112685;-67
2024/04/20 06:54:42;;;;;;;3.50;0.90;;;;;;;10.00;58.90;101944.22;5298446;26;112242;-67
2024/04/20 06:57:09;;;;;;;2.60;0.60;;;;;;;10.02;59.03;101943.28;5278784;26;121019;-67
2024/04/20 06:59:37;;;;;;;3.60;0.85;;;;;;;10.06;59.08;101949.38;5317300;26;122189;-67
2024/04/20 07:02:04;;;;;;;2.75;0.80;;;;;;;10.09;59.00;101949.28;5316857;26;113069;-67
2024/04/20 07:04:32;;;;;;;1.83;0.82;;;;;;;10.12;59.00;101952.72;5326114;26;112585;-67
2024/04/20 07:06:59;;;;;;;6.20;1.30;;;;;;;10.15;59.04;101951.78;5300414;26;124554;-67
2024/04/20 07:09:27;;;;;;;4.28;1.10;;;;;;;10.22;59.25;101960.44;5314051;26;123815;-67
2024/04/20 07:11:54;;;;;;;2.75;0.90;;;;;;;10.26;59.14;101962.09;5293623;26;113504;-67
2024/04/20 07:14:22;;;;;;;3.65;0.80;;;;;;;10.30;59.07;101962.03;5316712;26;113854;-67
2024/04/20 07:16:49;;;;;;;2.92;0.80;;;;;;;10.32;58.81;101969.91;5306985;26;122135;-66
2024/04/20 07:19:17;;;;;;;3.78;0.70;;;;;;;10.32;59.16;101976.09;5315754;26;123049;-67
2024/04/20 07:21:45;;;;;;;3.42;0.93;;;;;;;10.35;59.01;101974.28;5311429;26;112866;-67
2024/04/20 07:24:12;;;;;;;3.63;0.90;;;;;;;10.38;58.97;101966.22;5307330;26;112579;-67
2024/04/20 07:26:39;;;;;;;2.10;0.82;;;;;;;10.41;58.84;101984.69;5305735;26;122950;-67
2024/04/20 07:29:07;;;;;;;4.78;0.95;;;;;;;10.42;59.01;101995.25;5294235;26;121947;-67
2024/04/20 07:31:34;;;;;;;4.32;0.75;;;;;;;10.45;58.80;101991.66;5310741;26;112923;-67
2024/04/20 07:34:02;;;;;;;5.72;1.00;;;;;;;10.45;58.81;101999.59;5272825;26;111338;-67
2024/04/20 07:36:29;;;;;;;4.85;1.00;;;;;;;10.46;58.82;102001.34;5304282;26;122484;-67
2024/04/20 07:38:57;;;;;;;6.38;1.00;;;;;;;10.45;58.76;102015.47;5305056;26;122102;-67
2024/04/20 07:41:24;;;;;;;3.55;0.90;;;;;;;10.43;58.71;102006.72;5311237;26;112529;-67
2024/04/20 07:43:56;;;;;;;2.50;0.80;;;;;;;10.40;58.76;102012.09;5309488;26;113344;-67
2024/04/20 07:46:23;;;;;;;2.65;0.60;;;;;;;10.36;58.56;102021.91;5310170;26;122008;-66
2024/04/20 07:48:50;;;;;;;2.25;0.68;;;;;;;10.33;58.50;102017.53;5321490;26;122315;-67
2024/04/20 07:51:18;;;;;;;3.67;0.60;;;;;;;10.32;58.60;102015.81;5283879;26;112230;-67
2024/04/20 07:53:45;;;;;;;1.67;0.65;;;;;;;10.33;58.68;102017.53;5310219;26;112837;-67
2024/04/20 07:56:12;;;;;;;3.30;0.60;;;;;;;10.37;58.70;102020.13;5308402;26;123371;-67
2024/04/20 07:58:40;;;;;;;4.40;0.80;;;;;;;10.41;58.77;102022.63;5301076;26;123008;-67
2024/04/20 08:01:07;;;;;;;3.05;0.73;;;;;;;10.46;58.72;102025.19;5315726;26;113596;-67
2024/04/20 08:03:35;;;;;;;4.00;0.63;;;;;;;10.51;58.79;102025.94;5287132;26;113686;-67
2024/04/20 08:06:02;;;;;;;4.32;0.73;;;;;;;10.54;58.76;102027.63;5302254;26;122483;-67
2024/04/20 08:08:32;;;;;;;4.43;0.70;;;;;;;10.60;58.85;102038.91;5306525;26;121551;-68
2024/04/20 08:10:59;;;;;;;3.53;0.70;;;;;;;10.65;58.63;102037.03;5332368;26;112599;-67
2024/04/20 08:13:28;;;;;;;2.38;0.60;;;;;;;10.70;58.77;102037.78;5290548;26;112452;-67
2024/04/20 08:15:55;;;;;;;1.67;0.80;;;;;;;10.76;58.64;102043.84;5314337;26;122419;-67
2024/04/20 08:18:23;;;;;;;3.28;0.68;;;;;;;10.80;58.71;102053.44;5284071;26;122122;-67
2024/04/20 08:20:54;;;;;;;2.97;0.80;;;;;;;10.85;58.74;102056.81;5307958;26;112655;-67
2024/04/20 08:23:21;;;;;;;2.72;0.73;;;;;;;10.94;58.61;102056.56;5306156;26;112538;-67
2024/04/20 08:25:50;;;;;;;2.85;0.90;;;;;;;11.08;58.77;102059.72;5253065;26;121933;-67
2024/04/20 08:28:20;;;;;;;4.35;0.60;;;;;;;11.25;58.91;102061.91;5302865;26;122292;-66
2024/04/20 08:30:48;;;;;;;4.20;0.80;;;;;;;11.41;59.22;102067.63;5312825;26;112719;-67
2024/04/20 08:33:15;;;;;;;4.35;0.80;;;;;;;11.57;59.03;102070.72;5305760;26;112441;-67
2024/04/20 08:35:42;;;;;;;3.63;0.90;;;;;;;11.69;58.96;102062.38;5316467;26;122379;-68
2024/04/20 08:38:10;;;;;;;2.58;0.75;;;;;;;11.82;58.82;102062.88;5289338;26;121673;-67
2024/04/20 08:40:38;;;;;;;4.50;1.08;;;;;;;11.93;58.55;102059.94;5311857;26;112993;-66
2024/04/20 08:43:07;;;;;;;5.03;0.90;;;;;;;12.02;58.35;102069.41;5302092;26;112507;-66
2024/04/20 08:45:39;;;;;;;7.55;1.20;;;;;;;12.10;58.40;102072.69;5313505;26;122406;-66
2024/04/20 08:48:11;;;;;;;2.22;0.68;;;;;;;12.17;58.16;102078.69;5317305;26;122145;-66
2024/04/20 08:50:39;;;;;;;3.80;0.68;;;;;;;12.20;57.98;102074.13;5315665;26;113375;-67
2024/04/20 08:53:08;;;;;;;3.67;0.90;;;;;;;12.32;58.40;102077.31;5315119;26;113192;-68
2024/04/20 08:55:35;;;;;;;3.03;0.80;;;;;;;12.46;58.31;102085.69;5311189;26;122298;-66
2024/04/20 08:58:03;;;;;;;3.63;0.70;;;;;;;12.56;58.33;102087.13;5311370;26;122323;-66
2024/04/20 09:00:35;;;;;;;2.42;0.85;;;;;;;12.60;57.88;102088.78;5302023;26;112935;-66
2024/04/20 09:03:04;;;;;;;3.25;0.90;;;;;;;12.64;57.81;102095.72;5305751;26;112869;-67
2024/04/20 09:05:33;;;;;;;2.53;0.80;;;;;;;12.65;57.54;102097.44;5316337;26;123360;-66
2024/04/20 09:08:01;;;;;;;5.00;0.90;;;;;;;12.63;57.31;102093.97;5309096;26;122925;-66
2024/04/20 09:10:28;;;;;;;4.95;1.00;;;;;;;12.63;57.29;102096.63;5316251;26;112377;-66
2024/04/20 09:12:56;;;;;;;5.82;1.15;;;;;;;12.64;57.28;102101.03;5306452;26;114001;-66
2024/04/20 09:15:26;;;;;;;4.63;0.90;;;;;;;12.64;56.87;102095.72;5306828;26;121847;-66
2024/04/20 09:17:54;;;;;;;4.15;0.90;;;;;;;12.64;57.02;102095.72;5318913;26;122267;-66
2024/04/20 09:20:22;;;;;;;5.38;0.95;;;;;;;12.62;57.04;102097.56;5304602;26;112735;-65
2024/04/20 09:22:50;;;;;;;4.25;0.82;;;;;;;12.64;56.65;102093.06;5314662;26;112624;-65
2024/04/20 09:25:19;;;;;;;6.53;1.00;;;;;;;12.70;56.98;102104.41;5309958;26;122738;-65
2024/04/20 09:27:50;;;;;;;3.33;1.13;;;;;;;12.76;56.92;102093.56;5303786;26;121501;-66
2024/04/20 09:30:18;;;;;;;3.28;0.90;;;;;;;12.82;56.69;102099.53;5287138;26;111550;-66
2024/04/20 09:32:46;;;;;;;3.13;1.00;;;;;;;12.86;56.89;102100.28;5314718;26;112402;-65
2024/04/20 09:35:14;;;;;;;4.85;1.02;;;;;;;12.89;56.82;102105.53;5310376;26;122125;-66
2024/04/20 09:37:42;;;;;;;8.60;1.30;;;;;;;12.92;56.58;102100.09;5309981;26;122312;-66
2024/04/20 09:40:10;;;;;;;4.72;1.00;;;;;;;12.98;56.68;102097.22;5304167;26;114083;-65
2024/04/20 09:42:41;;;;;;;5.13;1.00;;;;;;;13.01;56.44;102088.25;5312480;26;113526;-61
2024/04/20 09:45:09;;;;;;;5.80;1.13;;;;;;;13.09;56.51;102091.53;5314651;26;122412;-61
2024/04/20 09:47:37;;;;;;;4.70;1.23;;;;;;;13.15;56.52;102101.09;5312102;26;122228;-62
2024/04/20 09:50:13;;;;;;;5.85;1.15;;;;;;;13.14;56.22;102115.31;5316410;26;112758;-61
2024/04/20 09:53:01;;;;;;;3.03;0.90;;;;;;;12.91;55.20;102130.25;5310548;26;112469;-61
2024/04/20 09:55:31;;;;;;;4.30;0.90;;;;;;;12.64;55.28;102119.66;5322846;26;122075;-61
2024/04/20 09:58:01;;;;;;;5.43;1.10;;;;;;;12.42;55.28;102115.94;5314207;26;122113;-61
2024/04/20 10:00:32;;;;;;;4.68;0.85;;;;;;;12.26;55.46;102111.13;5311632;26;111763;-61
2024/04/20 10:03:01;;;;;;;3.25;0.70;;;;;;;12.16;55.75;102114.97;5317852;26;111749;-61
2024/04/20 10:05:31;;;;;;;4.13;0.90;;;;;;;12.11;55.91;102106.31;5309842;26;122984;-62
2024/04/20 10:08:00;;;;;;;5.15;0.95;;;;;;;12.11;55.92;102102.75;5321432;26;121766;-62
2024/04/20 10:10:29;;;;;;;3.53;0.80;;;;;;;12.17;56.42;102106.13;5311642;26;112996;-61
2024/04/20 10:13:02;;;;;;;5.45;1.20;;;;;;;12.29;57.04;102098.66;5308515;26;112533;-62
2024/04/20 10:15:31;;;;;;;5.85;0.90;;;;;;;12.46;57.01;102096.31;5315101;26;123023;-61
2024/04/20 10:18:00;;;;;;;6.15;1.00;;;;;;;12.59;56.88;102097.66;5319606;26;123081;-61
2024/04/20 10:20:36;;;;;;;4.38;0.95;;;;;;;12.71;56.79;102092.84;5307200;26;113356;-62
2024/04/20 10:23:15;;;;;;;2.45;1.10;;;;;;;12.84;57.04;102091.50;5305707;26;112429;-61
2024/04/20 10:25:46;;;;;;;2.25;0.70;;;;;;;13.00;56.99;102092.72;5313747;26;122613;-61
2024/04/20 10:28:31;;;;;;;4.70;0.98;;;;;;;13.21;57.18;102090.22;5321643;26;122317;-61
2024/04/20 10:31:00;;;;;;;4.50;0.80;;;;;;;13.40;57.25;102086.00;5310831;26;113437;-61
2024/04/20 10:33:34;;;;;;;5.18;1.02;;;;;;;13.60;57.01;102087.06;5305761;26;113886;-61
2024/04/20 10:36:08;;;;;;;4.77;1.00;;;;;;;13.76;56.68;102088.19;5310777;26;123119;-61
2024/04/20 10:38:36;;;;;;;3.90;1.10;;;;;;;13.85;56.34;102086.97;5315822;26;122879;-61
2024/04/20 10:41:14;;;;;;;7.20;1.58;;;;;;;13.88;55.83;102101.94;5322981;21;112475;-91
2024/04/20 10:43:44;;;;;;;7.10;1.27;;;;;;;13.82;55.48;102095.97;5300735;26;110432;-85
2024/04/20 10:46:12;;;;;;;6.05;1.52;;;;;;;13.74;55.25;102106.00;5311121;26;121313;-89
2024/04/20 10:48:42;;;;;;;8.38;1.55;;;;;;;13.64;55.04;102099.31;5304274;26;120962;-89
2024/04/20 10:51:17;;;;;;;7.10;1.48;;;;;;;13.50;54.40;102106.94;5308635;26;111138;-94
2024/04/20 10:53:45;;;;;;;3.63;1.13;;;;;;;13.37;54.56;102112.72;5339763;26;110279;-91
2024/04/20 10:56:13;;;;;;;7.57;1.38;;;;;;;13.23;54.41;102115.84;5327127;26;120830;-92
2024/04/20 10:58:41;;;;;;;7.03;1.30;;;;;;;13.11;54.66;102099.44;5354468;26;121150;-93
2024/04/20 11:01:09;;;;;;;4.72;1.50;;;;;;;13.06;55.01;102107.59;5321438;26;111466;-92
2024/04/20 11:03:36;;;;;;;6.13;1.15;;;;;;;13.07;54.71;102108.44;5320313;26;111579;-91
2024/04/20 11:06:04;;;;;;;7.53;1.60;;;;;;;13.09;55.05;102106.59;5317506;26;121442;-93
2024/04/20 11:08:31;;;;;;;4.35;1.05;;;;;;;13.12;55.16;102111.84;5320867;26;121352;-92
2024/04/20 11:11:04;;;;;;;5.72;1.23;;;;;;;13.11;54.86;102105.66;5325037;26;114269;-91
2024/04/20 11:13:32;;;;;;;4.50;1.05;;;;;;;13.10;55.04;102108.34;5325039;26;111652;-91
2024/04/20 11:16:00;;;;;;;6.00;1.30;;;;;;;13.15;55.33;102107.28;5325051;26;121533;-92
2024/04/20 11:18:28;;;;;;;5.05;1.13;;;;;;;13.30;55.75;102099.66;5308075;26;122442;-87
2024/04/20 11:20:55;;;;;;;6.03;1.10;;;;;;;13.44;55.70;102095.59;5338601;26;111238;-89
2024/04/20 11:23:25;;;;;;;8.20;1.38;;;;;;;13.65;55.84;102087.72;5307414;26;111880;-90
2024/04/20 11:25:54;;;;;;;6.30;1.42;;;;;;;13.90;56.36;102100.09;5305931;26;120420;-86